Time;durP1;ratioP1;P1;durP2;ratioP2;P2;SDS_P1;SDS_P2;PMS_P1;PMS_P2;Temp;Humidity;BMP_temperature;BMP_pressure;BME280_temperature;BME280_humidity;BME280_pressure;Samples;Min_cycle;Max_cycle;Signal;HPM_P1;HPM_P2
2022/02/09 00:02:12;;;;;;;13.53;3.13;;;9.50;99.90;;;;;;5045755;28;20212;-78
2022/02/09 00:04:51;;;;;;;25.63;4.53;;;9.50;99.90;;;;;;5046283;28;20226;-78
2022/02/09 00:07:24;;;;;;;21.07;3.83;;;9.50;99.90;;;;;;5047325;28;20201;-77
2022/02/09 00:09:51;;;;;;;15.80;3.33;;;9.50;99.90;;;;;;5045792;28;20602;-79
2022/02/09 00:12:22;;;;;;;15.33;3.37;;;9.40;99.90;;;;;;5045411;28;20353;-78
2022/02/09 00:15:01;;;;;;;13.73;2.97;;;9.40;99.90;;;;;;5046531;28;20292;-78
2022/02/09 00:17:41;;;;;;;11.87;2.63;;;9.50;99.90;;;;;;5045872;28;20209;-78
2022/02/09 00:37:09;;;;;;;15.43;3.27;;;9.40;99.90;;;;;;5045400;28;20292;-80
2022/02/09 00:58:41;;;;;;;14.33;3.00;;;9.40;99.90;;;;;;5044521;28;20225;-79
2022/02/09 00:59:29;;;;;;;20.03;4.30;;;9.20;99.90;;;;;;5044639;28;20201;-79
2022/02/09 01:40:49;;;;;;;20.13;3.77;;;9.10;99.90;;;;;;5044938;28;20324;-78
2022/02/09 01:44:11;;;;;;;19.00;3.70;;;9.20;99.90;;;;;;5043597;28;20225;-79
2022/02/09 01:57:19;;;;;;;17.40;3.63;;;9.20;99.90;;;;;;5044191;28;20255;-79
2022/02/09 01:59:49;;;;;;;21.13;3.63;;;9.20;99.90;;;;;;5059905;28;20209;-79
2022/02/09 02:02:16;;;;;;;12.83;3.53;;;9.20;99.90;;;;;;5064292;28;20214;-79
2022/02/09 02:04:45;;;;;;;14.53;3.47;;;9.20;99.90;;;;;;5055366;28;20232;-80
2022/02/09 02:07:22;;;;;;;14.47;3.60;;;9.10;99.90;;;;;;5044249;28;20513;-78
2022/02/09 02:09:49;;;;;;;15.13;3.60;;;9.20;99.90;;;;;;5044242;28;20632;-80
2022/02/09 02:12:20;;;;;;;20.87;4.73;;;9.20;99.90;;;;;;5043224;28;20242;-80
2022/02/09 02:14:56;;;;;;;15.37;3.80;;;9.20;99.90;;;;;;5043974;28;20633;-76
2022/02/09 02:17:29;;;;;;;13.60;4.07;;;9.10;99.90;;;;;;5044423;28;20209;-79
2022/02/09 02:20:00;;;;;;;17.20;4.23;;;9.10;99.90;;;;;;5043907;28;20209;-78
2022/02/09 02:22:44;;;;;;;14.20;3.50;;;9.20;99.90;;;;;;5063633;28;20562;-80
2022/02/09 02:28:16;;;;;;;22.03;3.80;;;9.20;99.90;;;;;;5061073;28;20201;-80
2022/02/09 02:33:48;;;;;;;23.80;4.57;;;9.10;99.90;;;;;;5043586;28;20240;-80
2022/02/09 02:36:31;;;;;;;20.97;4.07;;;9.10;99.90;;;;;;5044293;28;20336;-79
2022/02/09 02:47:43;;;;;;;16.57;3.83;;;9.10;99.90;;;;;;4983357;28;20188;-77
2022/02/09 03:09:51;;;;;;;18.23;3.90;;;9.10;99.90;;;;;;5047718;28;20294;-79
2022/02/09 03:12:31;;;;;;;18.97;4.93;;;9.20;99.90;;;;;;5047631;28;20583;-79
2022/02/09 03:15:10;;;;;;;14.67;4.07;;;9.10;99.90;;;;;;5046874;28;20193;-80
2022/02/09 03:17:40;;;;;;;20.27;3.90;;;9.10;99.90;;;;;;5047188;28;20210;-77
2022/02/09 03:20:18;;;;;;;15.97;4.87;;;9.10;99.90;;;;;;5048140;28;20638;-80
2022/02/09 03:22:53;;;;;;;12.13;3.73;;;9.10;99.90;;;;;;5047603;28;20584;-79
2022/02/09 03:25:43;;;;;;;17.77;3.73;;;9.10;99.90;;;;;;5047518;28;20217;-80
2022/02/09 03:31:18;;;;;;;19.60;4.17;;;9.10;99.90;;;;;;5020474;28;20855;-79
2022/02/09 03:47:57;;;;;;;18.87;5.20;;;9.00;99.90;;;;;;5039277;28;20215;-77
2022/02/09 03:50:44;;;;;;;20.53;4.37;;;9.00;99.90;;;;;;5068560;28;20918;-77
2022/02/09 03:56:24;;;;;;;20.37;3.80;;;9.00;99.90;;;;;;5043900;28;20201;-79
2022/02/09 03:58:52;;;;;;;19.17;4.37;;;9.00;99.90;;;;;;5046273;28;20206;-80
2022/02/09 04:01:22;;;;;;;16.27;4.37;;;9.00;99.90;;;;;;5046719;28;20201;-79
2022/02/09 04:03:49;;;;;;;23.20;6.40;;;9.00;99.90;;;;;;5045929;28;20217;-78
2022/02/09 04:06:16;;;;;;;19.50;5.40;;;9.00;99.90;;;;;;5047270;28;20202;-77
2022/02/09 04:08:49;;;;;;;16.70;4.97;;;9.00;99.90;;;;;;5045621;28;20209;-78
2022/02/09 04:11:22;;;;;;;20.63;4.80;;;9.00;99.90;;;;;;5046164;28;20330;-80
2022/02/09 04:13:56;;;;;;;23.27;5.50;;;9.00;99.90;;;;;;5046124;28;20259;-75
2022/02/09 04:16:39;;;;;;;19.30;5.17;;;9.10;99.90;;;;;;5046621;28;20189;-80
2022/02/09 04:19:13;;;;;;;19.73;5.03;;;9.10;99.90;;;;;;5045978;28;20210;-78
2022/02/09 04:38:11;;;;;;;21.23;5.10;;;9.10;99.90;;;;;;5065583;28;20185;-78
2022/02/09 04:49:39;;;;;;;24.50;4.93;;;9.00;99.90;;;;;;5123391;27;20603;-77
2022/02/09 04:52:21;;;;;;;20.10;5.27;;;9.10;99.90;;;;;;5112374;27;20981;-77
2022/02/09 04:54:53;;;;;;;27.90;5.87;;;9.00;99.90;;;;;;5102042;28;20196;-78
2022/02/09 04:57:31;;;;;;;19.73;5.87;;;9.00;99.90;;;;;;5102311;28;20235;-78
2022/02/09 05:00:12;;;;;;;24.40;5.87;;;9.00;99.90;;;;;;5101419;28;20200;-80
2022/02/09 05:03:05;;;;;;;19.23;5.33;;;9.00;99.90;;;;;;5102816;28;20200;-79
2022/02/09 05:17:45;;;;;;;21.30;5.77;;;8.90;99.90;;;;;;5102004;28;20207;-78
2022/02/09 05:25:13;;;;;;;29.20;6.70;;;9.00;99.90;;;;;;5101498;28;20231;-78
2022/02/09 05:27:50;;;;;;;16.87;5.20;;;9.00;99.90;;;;;;5101820;28;20231;-80
2022/02/09 05:30:17;;;;;;;19.13;4.57;;;9.00;99.90;;;;;;5101729;28;20192;-80
2022/02/09 05:32:46;;;;;;;20.27;4.50;;;9.00;99.90;;;;;;5101761;28;20838;-78
2022/02/09 05:35:13;;;;;;;21.50;5.27;;;9.00;99.90;;;;;;5101249;28;20319;-78
2022/02/09 05:37:41;;;;;;;20.70;6.37;;;9.00;99.90;;;;;;5101380;28;20207;-81
2022/02/09 05:40:09;;;;;;;25.47;6.20;;;9.00;99.90;;;;;;5101505;28;20199;-79
2022/02/09 05:42:35;;;;;;;19.37;4.93;;;9.00;99.90;;;;;;5100410;28;20204;-79
2022/02/09 05:45:07;;;;;;;21.93;5.60;;;9.00;99.90;;;;;;5101433;28;20204;-79
2022/02/09 05:50:30;;;;;;;19.77;6.00;;;9.00;99.90;;;;;;5061126;28;20231;-77
2022/02/09 05:53:08;;;;;;;19.07;5.23;;;9.00;99.90;;;;;;5100608;28;20287;-79
2022/02/09 05:55:46;;;;;;;20.43;6.40;;;9.00;99.90;;;;;;5121084;27;20195;-79
2022/02/09 05:58:21;;;;;;;23.30;6.87;;;9.00;99.90;;;;;;5118433;27;20191;-79
2022/02/09 06:00:48;;;;;;;21.30;5.83;;;9.00;99.90;;;;;;5086706;28;20192;-77
2022/02/09 06:03:16;;;;;;;22.93;5.20;;;9.00;99.90;;;;;;5086445;28;20673;-79
2022/02/09 06:05:42;;;;;;;15.00;5.63;;;8.90;99.90;;;;;;5087491;28;20215;-77
2022/02/09 06:08:10;;;;;;;23.77;5.87;;;8.90;99.90;;;;;;5087476;28;20216;-80
2022/02/09 06:10:39;;;;;;;23.93;5.80;;;8.90;99.90;;;;;;5086945;28;20215;-78
2022/02/09 06:13:19;;;;;;;15.20;4.07;;;8.90;99.90;;;;;;5087054;28;20289;-79
2022/02/09 06:16:09;;;;;;;22.77;5.37;;;8.90;99.90;;;;;;5086732;28;20212;-79
2022/02/09 06:21:21;;;;;;;19.63;4.83;;;8.90;99.90;;;;;;5096837;28;20234;-76
2022/02/09 06:23:50;;;;;;;21.00;5.47;;;8.90;99.90;;;;;;5106708;28;20298;-79
2022/02/09 06:26:17;;;;;;;17.57;4.63;;;8.90;99.90;;;;;;5106755;28;20227;-79
2022/02/09 06:28:45;;;;;;;18.00;4.63;;;8.90;99.90;;;;;;5100799;28;20224;-78
2022/02/09 06:31:11;;;;;;;17.50;5.07;;;8.90;99.90;;;;;;5086335;28;20203;-79
2022/02/09 06:33:38;;;;;;;21.70;5.27;;;8.90;99.90;;;;;;5087064;28;20196;-78
2022/02/09 06:36:08;;;;;;;17.07;4.57;;;8.90;99.90;;;;;;5088420;28;20204;-78
2022/02/09 06:38:39;;;;;;;15.73;4.23;;;8.90;99.90;;;;;;5106291;28;20203;-78
2022/02/09 06:41:08;;;;;;;22.07;4.97;;;8.90;99.90;;;;;;5094691;28;20212;-78
2022/02/09 06:43:36;;;;;;;25.50;5.03;;;8.90;99.90;;;;;;5087114;28;20209;-78
2022/02/09 06:46:03;;;;;;;21.43;5.73;;;8.90;99.90;;;;;;5090170;28;20227;-77
2022/02/09 06:48:31;;;;;;;16.70;4.50;;;8.90;99.90;;;;;;5106371;27;20271;-77
2022/02/09 06:51:04;;;;;;;19.57;4.83;;;8.90;99.90;;;;;;5105030;28;20252;-78
2022/02/09 06:53:35;;;;;;;27.27;6.53;;;8.90;99.90;;;;;;5093675;28;20212;-78
2022/02/09 06:56:03;;;;;;;19.43;5.30;;;8.90;99.90;;;;;;5086526;28;20219;-79
2022/02/09 06:58:59;;;;;;;29.00;6.70;;;8.90;99.90;;;;;;5084791;28;20200;-79
2022/02/09 07:01:26;;;;;;;17.00;4.90;;;8.90;99.90;;;;;;5085762;28;20220;-78
2022/02/09 07:03:52;;;;;;;17.93;5.17;;;8.90;99.90;;;;;;5085357;28;20204;-80
2022/02/09 07:06:19;;;;;;;31.53;6.70;;;8.90;99.90;;;;;;5085372;28;20200;-77
2022/02/09 07:08:46;;;;;;;22.13;5.50;;;8.90;99.90;;;;;;5085361;28;20220;-79
2022/02/09 07:11:13;;;;;;;23.93;5.30;;;8.90;99.90;;;;;;5085836;28;20205;-77
2022/02/09 07:13:41;;;;;;;15.83;4.73;;;9.00;99.90;;;;;;5085055;28;20203;-76
2022/02/09 07:16:07;;;;;;;20.70;4.93;;;9.00;99.90;;;;;;5085464;28;20207;-78
2022/02/09 07:18:37;;;;;;;21.90;5.67;;;9.00;99.90;;;;;;5085457;28;20498;-78
2022/02/09 07:21:08;;;;;;;18.73;6.40;;;9.00;99.90;;;;;;5084474;28;20196;-78
2022/02/09 07:23:40;;;;;;;20.70;6.70;;;9.00;99.90;;;;;;5085191;28;20197;-79
2022/02/09 07:26:11;;;;;;;16.57;6.33;;;9.00;99.90;;;;;;5085398;28;20564;-79
2022/02/09 07:28:39;;;;;;;15.30;6.23;;;9.00;99.90;;;;;;5084805;28;20456;-79
2022/02/09 07:31:09;;;;;;;16.47;6.17;;;9.00;99.90;;;;;;5085825;28;20525;-79
2022/02/09 07:33:36;;;;;;;23.30;7.47;;;9.00;99.90;;;;;;5085263;28;20197;-78
2022/02/09 07:36:03;;;;;;;25.87;7.70;;;9.00;99.90;;;;;;5085199;28;20200;-77
2022/02/09 07:38:31;;;;;;;23.17;6.13;;;9.00;99.90;;;;;;5085669;28;20203;-79
2022/02/09 07:40:59;;;;;;;24.13;6.43;;;9.00;99.90;;;;;;5083948;28;20866;-77
2022/02/09 07:43:38;;;;;;;21.80;6.80;;;9.10;99.90;;;;;;5104762;28;20208;-77
2022/02/09 07:46:26;;;;;;;23.67;6.70;;;9.10;99.90;;;;;;5100454;28;20917;-79
2022/02/09 07:49:02;;;;;;;19.90;5.70;;;9.10;99.90;;;;;;5084150;28;20251;-77
2022/02/09 07:51:53;;;;;;;18.87;6.27;;;9.20;99.90;;;;;;5085076;28;20607;-77
2022/02/09 07:54:22;;;;;;;23.47;6.27;;;9.10;99.90;;;;;;5084471;28;20196;-78
2022/02/09 07:56:49;;;;;;;28.67;7.13;;;9.20;99.90;;;;;;5084310;28;20708;-78
2022/02/09 07:59:16;;;;;;;25.47;7.23;;;9.20;99.90;;;;;;5085428;28;20199;-78
2022/02/09 08:01:44;;;;;;;29.87;8.63;;;9.20;99.90;;;;;;5084357;28;20196;-78
2022/02/09 08:04:13;;;;;;;24.23;8.23;;;9.20;99.90;;;;;;5085457;28;20204;-76
2022/02/09 08:06:41;;;;;;;24.93;7.83;;;9.20;99.90;;;;;;5084233;28;20211;-78
2022/02/09 08:09:14;;;;;;;27.37;8.10;;;9.20;99.90;;;;;;5083576;28;20683;-78
2022/02/09 08:11:49;;;;;;;21.23;7.47;;;9.20;99.90;;;;;;5084181;28;20200;-76
2022/02/09 08:28:21;;;;;;;29.00;7.33;;;9.30;99.90;;;;;;5083844;28;20194;-78
2022/02/09 08:31:22;;;;;;;18.47;7.80;;;9.30;99.90;;;;;;5084118;28;20211;-77
2022/02/09 08:33:48;;;;;;;21.00;7.27;;;9.30;99.90;;;;;;5083719;28;20235;-78
2022/02/09 08:36:18;;;;;;;17.70;7.30;;;9.40;99.90;;;;;;5084126;28;20200;-78
2022/02/09 08:38:44;;;;;;;24.40;7.60;;;9.40;99.90;;;;;;5083583;28;20266;-77
2022/02/09 08:41:12;;;;;;;18.67;6.13;;;9.40;99.90;;;;;;5084311;28;20216;-77
2022/02/09 08:43:39;;;;;;;26.03;8.43;;;9.40;99.90;;;;;;5053169;28;20219;-77
2022/02/09 08:46:06;;;;;;;20.53;7.33;;;9.40;99.90;;;;;;5089262;28;20689;-77
2022/02/09 08:48:36;;;;;;;21.00;7.03;;;9.40;99.90;;;;;;5104757;28;21129;-79
2022/02/09 08:51:03;;;;;;;26.40;7.23;;;9.40;99.90;;;;;;5086608;28;20213;-77
2022/02/09 08:53:33;;;;;;;30.53;7.73;;;9.40;99.90;;;;;;5084613;28;20624;-79
2022/02/09 08:56:00;;;;;;;18.73;7.40;;;9.40;99.90;;;;;;5084054;28;20207;-78
2022/02/09 18:31:12;;;;;;;18.07;8.10;;;8.80;99.90;;;;;;5087173;28;20257;-80
2022/02/09 18:45:00;;;;;;;24.43;7.90;;;8.70;99.90;;;;;;5085663;28;20200;-79
2022/02/09 18:47:57;;;;;;;30.23;8.40;;;8.80;99.90;;;;;;5102176;28;20264;-79
2022/02/09 19:04:26;;;;;;;25.23;9.43;;;8.70;99.90;;;;;;5084956;28;20200;-80
2022/02/09 19:07:16;;;;;;;24.73;9.83;;;8.70;99.90;;;;;;5085395;28;20349;-79
2022/02/09 19:15:36;;;;;;;23.03;9.37;;;8.70;99.90;;;;;;5085988;28;20214;-79
2022/02/09 19:18:14;;;;;;;26.13;10.03;;;8.70;99.90;;;;;;5085127;28;20319;-79
2022/02/09 19:20:56;;;;;;;23.63;9.33;;;8.70;99.90;;;;;;5085265;28;20204;-79
2022/02/09 19:26:29;;;;;;;24.50;8.63;;;8.70;99.90;;;;;;5085125;28;20655;-78
2022/02/09 19:31:42;;;;;;;25.73;9.63;;;8.70;99.90;;;;;;5082622;28;20216;-77
2022/02/09 19:45:50;;;;;;;28.90;10.33;;;8.80;99.90;;;;;;5104239;28;20205;-79
2022/02/09 19:48:20;;;;;;;25.93;10.50;;;8.80;99.90;;;;;;5082590;28;20264;-78
2022/02/09 19:51:03;;;;;;;22.20;10.47;;;8.80;99.90;;;;;;5084533;28;20274;-77
2022/02/09 19:53:40;;;;;;;28.63;10.37;;;8.70;99.90;;;;;;5084206;28;20563;-78
2022/02/09 19:56:11;;;;;;;22.53;9.33;;;8.80;99.90;;;;;;5085490;28;20214;-77
2022/02/09 19:58:42;;;;;;;21.20;9.27;;;8.80;99.90;;;;;;5085248;28;20197;-78
2022/02/09 20:01:13;;;;;;;25.13;10.07;;;8.70;99.90;;;;;;5084518;28;20227;-77
2022/02/09 20:03:40;;;;;;;21.50;8.77;;;8.80;99.90;;;;;;5093157;28;20211;-78
2022/02/09 20:06:09;;;;;;;20.53;8.70;;;8.80;99.90;;;;;;5105353;28;20203;-78
2022/02/09 20:08:37;;;;;;;23.03;8.70;;;8.80;99.90;;;;;;5104620;28;20303;-79
2022/02/09 20:11:04;;;;;;;21.13;9.10;;;8.80;99.90;;;;;;5093348;28;20280;-79
2022/02/09 20:13:33;;;;;;;16.27;8.07;;;8.80;99.90;;;;;;5084253;28;20205;-78
2022/02/09 20:15:59;;;;;;;22.67;8.53;;;8.80;99.90;;;;;;5083859;28;20546;-79
2022/02/09 20:18:26;;;;;;;21.30;9.13;;;8.80;99.90;;;;;;5083318;28;20241;-79
2022/02/09 20:20:54;;;;;;;22.07;7.67;;;8.80;99.90;;;;;;5084010;28;20196;-78
2022/02/09 20:23:22;;;;;;;15.57;7.53;;;8.80;99.90;;;;;;5085002;28;20208;-76
2022/02/09 20:25:49;;;;;;;27.73;8.90;;;8.80;99.90;;;;;;5084709;28;20604;-80
2022/02/09 20:49:14;;;;;;;20.57;9.20;;;8.90;99.90;;;;;;4758032;29;20594;-79
2022/02/09 20:51:40;;;;;;;19.80;9.10;;;8.90;99.90;;;;;;4856414;29;20215;-79
2022/02/09 20:54:07;;;;;;;19.20;8.60;;;8.90;99.90;;;;;;4922446;29;20210;-79
2022/02/09 20:56:34;;;;;;;20.80;8.30;;;8.90;99.90;;;;;;4925700;29;20214;-79
2022/02/09 20:59:04;;;;;;;24.90;9.90;;;8.90;99.90;;;;;;4925271;29;20213;-81
2022/02/09 21:01:38;;;;;;;21.73;8.43;;;9.00;99.90;;;;;;4944550;28;20308;-80
2022/02/09 21:04:09;;;;;;;21.20;7.70;;;9.00;99.90;;;;;;4943769;29;20295;-81
2022/02/09 21:06:52;;;;;;;16.60;7.37;;;8.90;99.90;;;;;;4957237;28;20672;-80
2022/02/09 21:09:27;;;;;;;24.77;8.50;;;8.90;99.90;;;;;;4962619;28;20540;-79
2022/02/09 21:12:04;;;;;;;22.23;8.00;;;8.90;99.90;;;;;;4963356;28;20204;-78
2022/02/09 21:14:50;;;;;;;24.93;9.30;;;8.90;99.90;;;;;;4967948;28;20612;-79
2022/02/09 21:17:31;;;;;;;25.40;8.77;;;8.90;99.90;;;;;;5021417;28;20203;-79
2022/02/09 21:20:25;;;;;;;32.60;9.60;;;8.90;99.90;;;;;;5022081;28;20595;-79
2022/02/09 21:26:16;;;;;;;23.80;8.90;;;8.90;99.90;;;;;;5000683;28;20650;-77
2022/02/09 21:53:45;;;;;;;25.00;12.03;;;8.90;99.90;;;;;;5087980;28;20235;-78
2022/02/09 21:56:21;;;;;;;21.80;12.27;;;8.80;99.90;;;;;;5087807;28;20204;-80
2022/02/09 21:58:58;;;;;;;23.63;12.53;;;8.80;99.90;;;;;;5088225;28;20638;-79
2022/02/09 22:01:37;;;;;;;26.87;12.37;;;8.80;99.90;;;;;;5107072;28;20587;-80
2022/02/09 22:07:29;;;;;;;21.00;12.17;;;8.80;99.90;;;;;;5088484;28;20192;-80
2022/02/09 22:21:14;;;;;;;20.63;14.43;;;8.80;99.90;;;;;;5087537;28;20195;-80
2022/02/09 22:54:31;;;;;;;26.83;14.23;;;8.80;99.90;;;;;;5066934;23;20230;-83
2022/02/09 22:56:58;;;;;;;26.43;14.73;;;8.80;99.90;;;;;;5050635;28;20288;-84
2022/02/09 22:59:30;;;;;;;32.57;17.77;;;8.80;99.90;;;;;;5052134;28;20210;-81
2022/02/09 23:02:01;;;;;;;30.33;17.13;;;8.80;99.90;;;;;;5034236;28;20221;-82
2022/02/09 23:04:37;;;;;;;31.13;17.17;;;8.70;99.90;;;;;;5050795;28;20209;-85
2022/02/09 23:07:12;;;;;;;33.77;19.00;;;8.70;99.90;;;;;;5050317;28;20206;-84
2022/02/09 23:09:50;;;;;;;33.73;18.27;;;8.70;99.90;;;;;;5067679;28;20196;-83
2022/02/09 23:12:29;;;;;;;35.70;18.50;;;8.70;99.90;;;;;;5071167;28;20359;-84
2022/02/09 23:15:15;;;;;;;40.77;22.13;;;8.70;99.90;;;;;;5070677;28;20215;-83
2022/02/09 23:23:35;;;;;;;48.83;23.60;;;8.70;99.90;;;;;;5072284;28;20505;-82
2022/02/09 23:54:08;;;;;;;57.00;27.70;;;8.60;99.90;;;;;;5049449;28;20291;-83
2022/02/09 23:57:14;;;;;;;50.77;28.63;;;8.60;99.90;;;;;;5050132;28;20203;-84
